createdAt,value
2023-02-03T00:02:10.295Z,6.30
2023-02-03T00:04:37.380Z,6.30
2023-02-03T00:07:04.592Z,6.30
2023-02-03T00:09:31.703Z,6.30
2023-02-03T00:11:58.698Z,6.30
2023-02-03T00:14:25.624Z,6.40
2023-02-03T00:16:52.533Z,6.40
2023-02-03T00:19:19.684Z,6.40
2023-02-03T00:21:46.725Z,6.40
2023-02-03T00:24:13.826Z,6.40
2023-02-03T00:26:43.840Z,6.40
2023-02-03T00:29:11.430Z,6.50
2023-02-03T00:31:38.959Z,6.50
2023-02-03T00:34:06.609Z,6.50
2023-02-03T00:36:33.650Z,6.50
2023-02-03T00:39:01.614Z,6.50
2023-02-03T00:41:31.514Z,6.50
2023-02-03T00:43:59.212Z,6.50
2023-02-03T00:46:26.398Z,6.50
2023-02-03T00:48:53.473Z,6.50
2023-02-03T00:51:21.435Z,6.50
2023-02-03T00:53:49.396Z,6.50
2023-02-03T00:56:16.437Z,6.50
2023-02-03T00:58:44.720Z,6.50
2023-02-03T01:01:12.154Z,6.50
2023-02-03T01:03:39.667Z,6.50
2023-02-03T01:06:19.963Z,6.50
2023-02-03T01:08:48.414Z,6.50
2023-02-03T01:11:19.990Z,6.50
2023-02-03T01:13:48.991Z,6.50
2023-02-03T01:16:19.000Z,6.50
2023-02-03T01:18:46.846Z,6.50
2023-02-03T01:21:18.216Z,6.50
2023-02-03T01:23:45.675Z,6.50
2023-02-03T01:26:18.127Z,6.50
2023-02-03T01:28:53.912Z,6.60
2023-02-03T01:31:25.358Z,6.60
2023-02-03T01:33:55.085Z,6.60
2023-02-03T01:36:25.827Z,6.60
2023-02-03T01:38:54.214Z,6.60
2023-02-03T01:41:25.448Z,6.60
2023-02-03T01:43:57.891Z,6.70
2023-02-03T01:46:39.469Z,6.70
2023-02-03T01:49:25.177Z,6.70
2023-02-03T01:51:53.392Z,6.70
2023-02-03T01:54:35.058Z,6.70
2023-02-03T01:57:07.602Z,6.70
2023-02-03T01:59:35.717Z,6.70
2023-02-03T02:02:05.149Z,6.70
2023-02-03T02:05:01.339Z,6.70
2023-02-03T02:07:29.170Z,6.70
2023-02-03T02:09:56.853Z,6.70
2023-02-03T02:12:23.872Z,6.70
2023-02-03T02:14:51.154Z,6.70
2023-02-03T02:17:35.539Z,6.70
2023-02-03T02:20:33.357Z,6.70
2023-02-03T02:23:31.907Z,6.60
2023-02-03T02:26:51.198Z,6.70
2023-02-03T02:29:55.772Z,6.60
2023-02-03T02:33:28.682Z,6.90
2023-02-03T02:36:24.959Z,6.60
2023-02-03T02:39:15.356Z,6.60
2023-02-03T02:42:02.442Z,6.60
2023-02-03T02:44:40.778Z,6.50
2023-02-03T02:47:19.258Z,6.50
2023-02-03T02:49:52.953Z,6.50
2023-02-03T02:52:22.553Z,6.50
2023-02-03T02:54:55.193Z,6.50
2023-02-03T02:57:26.883Z,6.40
2023-02-03T02:59:54.850Z,6.40
2023-02-03T03:02:22.033Z,6.40
2023-02-03T03:04:51.172Z,6.30
2023-02-03T03:07:27.816Z,6.30
2023-02-03T03:10:01.493Z,6.40
2023-02-03T03:12:38.314Z,6.20
2023-02-03T03:15:11.359Z,6.20
2023-02-03T03:17:45.133Z,6.20
2023-02-03T03:20:20.011Z,6.20
2023-02-03T03:23:04.433Z,6.20
2023-02-03T03:25:39.829Z,6.20
2023-02-03T03:28:18.420Z,6.20
2023-02-03T03:30:45.706Z,6.20
2023-02-03T03:33:12.812Z,6.10
2023-02-03T03:35:55.717Z,6.20
2023-02-03T03:38:39.487Z,6.20
2023-02-03T03:41:15.816Z,6.20
2023-02-03T03:43:45.034Z,6.20
2023-02-03T03:46:18.152Z,6.20
2023-02-03T03:48:57.172Z,6.20
2023-02-03T03:52:04.394Z,6.20
2023-02-03T03:54:33.411Z,6.20
2023-02-03T03:57:30.049Z,6.20
2023-02-03T03:59:59.070Z,6.20
2023-02-03T04:02:27.933Z,6.30
2023-02-03T04:04:56.861Z,6.30
2023-02-03T04:07:23.979Z,6.30
2023-02-03T04:09:51.344Z,6.30
2023-02-03T04:12:24.880Z,6.30
2023-02-03T04:14:51.891Z,6.30
2023-02-03T04:17:20.102Z,6.30
2023-02-03T04:19:48.622Z,6.30
2023-02-03T04:22:15.676Z,6.40
2023-02-03T04:24:42.672Z,6.40
2023-02-03T04:27:09.716Z,6.40
2023-02-03T04:29:36.788Z,6.40
2023-02-03T04:32:04.046Z,6.50
2023-02-03T04:34:31.202Z,6.50
2023-02-03T04:36:58.083Z,6.50
2023-02-03T04:39:25.019Z,6.60
2023-02-03T04:41:52.007Z,6.60
2023-02-03T04:44:18.869Z,6.70
2023-02-03T04:46:45.888Z,6.70
2023-02-03T04:49:12.767Z,6.80
2023-02-03T04:51:39.904Z,6.80
2023-02-03T04:54:06.949Z,6.80
2023-02-03T04:56:33.951Z,6.90
2023-02-03T04:59:00.810Z,6.90
2023-02-03T05:01:27.971Z,6.90
2023-02-03T05:03:54.893Z,7.00
2023-02-03T05:06:28.808Z,7.00
2023-02-03T05:08:55.997Z,7.10
2023-02-03T05:11:23.321Z,7.20
2023-02-03T05:13:50.658Z,7.20
2023-02-03T05:16:17.758Z,7.20
2023-02-03T05:18:44.666Z,7.40
2023-02-03T05:21:11.797Z,7.40
2023-02-03T05:23:38.825Z,7.50
2023-02-03T05:26:05.790Z,7.60
2023-02-03T05:28:32.734Z,7.60
2023-02-03T05:31:03.250Z,7.70
2023-02-03T05:33:30.765Z,7.80
2023-02-03T05:35:57.644Z,7.80
2023-02-03T05:38:28.242Z,7.90
2023-02-03T05:41:13.559Z,8.00
2023-02-03T05:43:40.591Z,8.00
2023-02-03T05:46:08.029Z,8.10
2023-02-03T05:48:35.460Z,8.20
2023-02-03T05:51:02.430Z,8.30
2023-02-03T05:53:29.468Z,8.30
2023-02-03T05:55:56.275Z,8.40
2023-02-03T05:58:23.536Z,8.40
2023-02-03T06:00:50.370Z,8.50
2023-02-03T06:03:17.446Z,8.60
2023-02-03T06:05:44.891Z,8.70
2023-02-03T06:08:11.999Z,8.70
2023-02-03T06:10:38.931Z,8.80
2023-02-03T06:13:16.064Z,8.90
2023-02-03T06:15:43.673Z,8.90
2023-02-03T06:18:10.942Z,9.00
2023-02-03T06:20:37.815Z,9.10
2023-02-03T06:23:04.715Z,9.10
2023-02-03T06:25:32.678Z,9.10
2023-02-03T06:28:00.174Z,9.20
2023-02-03T06:30:27.595Z,9.30
2023-02-03T06:32:55.136Z,9.30
2023-02-03T06:35:21.977Z,9.40
2023-02-03T06:37:48.795Z,9.50
2023-02-03T06:40:15.797Z,9.60
2023-02-03T06:42:47.104Z,9.60
2023-02-03T06:45:15.154Z,9.70
2023-02-03T06:47:43.901Z,9.70
2023-02-03T06:50:14.736Z,9.80
2023-02-03T06:52:42.018Z,9.90
2023-02-03T06:55:09.413Z,9.90
2023-02-03T06:57:36.501Z,10.00
2023-02-03T07:00:04.272Z,10.00
2023-02-03T07:02:31.260Z,10.10
2023-02-03T07:04:58.103Z,10.20
2023-02-03T07:07:25.218Z,10.20
2023-02-03T07:09:52.283Z,10.30
2023-02-03T07:12:19.431Z,10.30
2023-02-03T07:14:46.277Z,10.40
2023-02-03T07:17:13.335Z,10.40
2023-02-03T07:19:40.300Z,10.40
2023-02-03T07:22:07.369Z,10.50
2023-02-03T07:24:34.237Z,10.50
2023-02-03T07:27:03.445Z,10.50
2023-02-03T07:29:31.677Z,10.50
2023-02-03T07:31:59.109Z,10.60
2023-02-03T07:34:26.172Z,10.60
2023-02-03T07:36:53.033Z,10.60
2023-02-03T07:39:20.010Z,10.60
2023-02-03T07:41:46.916Z,10.60
2023-02-03T07:44:14.038Z,10.70
2023-02-03T07:46:44.711Z,10.70
2023-02-03T07:49:12.754Z,10.70
2023-02-03T07:51:39.804Z,10.70
2023-02-03T07:54:06.851Z,10.70
2023-02-03T07:56:34.037Z,10.60
2023-02-03T07:59:01.019Z,10.80
2023-02-03T08:01:28.293Z,10.80
2023-02-03T08:03:55.485Z,10.80
2023-02-03T08:06:22.991Z,10.90
2023-02-03T08:08:49.917Z,10.90
2023-02-03T08:11:16.851Z,10.90
2023-02-03T08:13:43.844Z,10.90
2023-02-03T08:16:10.761Z,10.90
2023-02-03T08:18:37.685Z,10.90
2023-02-03T08:21:05.028Z,10.90
2023-02-03T08:23:31.953Z,11.00
2023-02-03T08:26:24.436Z,10.90
2023-02-03T08:28:51.838Z,10.90
2023-02-03T08:31:18.995Z,10.90
2023-02-03T08:33:46.668Z,11.00
2023-02-03T08:36:13.603Z,10.90
2023-02-03T08:38:41.827Z,11.00
2023-02-03T08:41:11.628Z,11.00
2023-02-03T08:43:39.022Z,11.00
2023-02-03T08:46:08.019Z,11.00
2023-02-03T08:48:35.299Z,11.00
2023-02-03T08:51:02.461Z,11.00
2023-02-03T08:53:29.372Z,11.00
2023-02-03T08:55:56.466Z,11.00
2023-02-03T08:58:23.564Z,11.00
2023-02-03T09:00:53.262Z,11.00
2023-02-03T09:03:20.268Z,11.00
2023-02-03T09:05:47.203Z,11.00
2023-02-03T09:08:14.133Z,11.00
2023-02-03T09:10:41.221Z,11.10
2023-02-03T09:13:08.063Z,11.10
2023-02-03T09:15:35.036Z,11.10
2023-02-03T09:18:02.064Z,11.10
2023-02-03T09:20:29.359Z,11.10
2023-02-03T09:22:59.677Z,11.10
2023-02-03T09:25:26.679Z,11.10
2023-02-03T09:27:53.947Z,11.10
2023-02-03T09:30:20.978Z,11.10
2023-02-03T09:32:54.093Z,11.10
2023-02-03T09:35:21.403Z,11.10
2023-02-03T09:37:48.868Z,11.10
2023-02-03T09:40:28.792Z,11.10
2023-02-03T09:43:30.998Z,11.20
2023-02-03T09:46:11.285Z,11.10
2023-02-03T09:48:44.689Z,11.20
2023-02-03T09:51:24.692Z,11.20
2023-02-03T09:54:06.262Z,11.20
2023-02-03T09:56:36.422Z,11.20
2023-02-03T09:59:03.986Z,11.20
2023-02-03T10:01:56.727Z,11.30
2023-02-03T10:04:27.733Z,11.30
2023-02-03T10:07:29.327Z,11.30
2023-02-03T10:10:20.962Z,11.30
2023-02-03T10:12:58.296Z,11.30
2023-02-03T10:15:39.420Z,11.40
2023-02-03T10:18:14.731Z,11.30
2023-02-03T10:20:47.658Z,11.40
2023-02-03T10:23:40.727Z,11.40
2023-02-03T10:26:16.089Z,11.50
2023-02-03T10:28:55.073Z,11.50
2023-02-03T10:31:27.803Z,11.50
2023-02-03T10:34:11.681Z,11.50
2023-02-03T10:36:50.822Z,11.50
2023-02-03T10:39:42.047Z,11.50
2023-02-03T10:42:11.551Z,11.60
2023-02-03T10:44:43.311Z,11.60
2023-02-03T10:47:35.023Z,11.60
2023-02-03T10:50:35.024Z,11.50
2023-02-03T10:53:21.180Z,11.60
2023-02-03T10:56:11.222Z,11.60
2023-02-03T10:58:40.501Z,11.50
2023-02-03T11:01:16.597Z,11.40
2023-02-03T11:04:06.295Z,11.30
2023-02-03T11:06:36.285Z,11.20
2023-02-03T11:09:30.016Z,11.10
2023-02-03T11:12:26.275Z,11.00
2023-02-03T11:14:54.008Z,11.00
2023-02-03T11:17:30.143Z,11.00
2023-02-03T11:20:14.456Z,11.00
2023-02-03T11:22:44.118Z,11.00
2023-02-03T11:25:29.421Z,11.00
2023-02-03T11:27:57.017Z,11.00
2023-02-03T11:30:30.086Z,11.00
2023-02-03T11:33:00.811Z,11.00
2023-02-03T11:35:31.681Z,11.10
2023-02-03T11:38:01.333Z,11.10
2023-02-03T11:40:30.990Z,11.10
2023-02-03T11:42:58.058Z,11.20
2023-02-03T11:45:42.019Z,11.20
2023-02-03T11:48:25.125Z,11.30
2023-02-03T11:51:05.117Z,11.30
2023-02-03T11:54:02.668Z,11.40
2023-02-03T11:56:32.773Z,11.40
2023-02-03T11:59:21.335Z,11.50
2023-02-03T12:02:32.046Z,11.60
2023-02-03T12:05:45.892Z,11.80
2023-02-03T12:08:32.651Z,12.10
2023-02-03T12:11:24.088Z,12.30
2023-02-03T12:14:06.579Z,12.60
2023-02-03T12:17:09.687Z,12.80
2023-02-03T12:20:01.767Z,13.00
2023-02-03T12:23:15.069Z,13.30
2023-02-03T12:26:22.595Z,13.60
2023-02-03T12:29:13.828Z,13.90
2023-02-03T12:31:46.521Z,14.00
2023-02-03T12:34:19.518Z,14.00
2023-02-03T12:36:58.554Z,14.10
2023-02-03T12:39:34.915Z,14.10
2023-02-03T12:42:29.661Z,14.10
2023-02-03T12:45:06.558Z,14.20
2023-02-03T12:47:51.065Z,14.20
2023-02-03T12:50:27.755Z,14.20
2023-02-03T12:53:11.319Z,14.20
2023-02-03T12:55:46.451Z,14.10
2023-02-03T12:58:28.569Z,14.30
2023-02-03T13:01:03.898Z,14.30
2023-02-03T13:03:48.587Z,14.20
2023-02-03T13:06:48.468Z,14.00
2023-02-03T13:09:27.403Z,13.70
2023-02-03T13:12:43.217Z,13.40
2023-02-03T13:15:21.274Z,13.10
2023-02-03T13:18:29.541Z,12.80
2023-02-03T13:20:57.312Z,12.30
2023-02-03T13:23:25.152Z,12.00
2023-02-03T13:26:11.032Z,11.80
2023-02-03T13:28:59.925Z,11.60
2023-02-03T13:32:19.499Z,11.30
2023-02-03T13:35:32.323Z,11.10
2023-02-03T13:38:15.167Z,11.00
2023-02-03T13:41:06.459Z,10.80
2023-02-03T13:43:39.432Z,10.70
2023-02-03T13:46:21.590Z,10.60
2023-02-03T13:48:48.836Z,10.60
2023-02-03T13:51:24.087Z,10.70
2023-02-03T13:53:59.777Z,10.80
2023-02-03T13:56:28.755Z,11.10
2023-02-03T13:59:19.975Z,11.50
2023-02-03T14:01:47.405Z,11.80
2023-02-03T14:04:28.250Z,12.20
2023-02-03T14:07:02.244Z,12.60
2023-02-03T14:09:34.140Z,12.90
2023-02-03T14:12:16.353Z,13.20
2023-02-03T14:14:51.420Z,13.50
2023-02-03T14:17:42.723Z,13.80
2023-02-03T14:20:28.038Z,14.00
2023-02-03T14:23:15.375Z,14.20
2023-02-03T14:25:58.779Z,14.40
2023-02-03T14:28:47.028Z,14.50
2023-02-03T14:31:25.339Z,14.60
2023-02-03T14:34:09.366Z,14.70
2023-02-03T14:36:54.644Z,14.70
2023-02-03T14:39:55.829Z,14.80
2023-02-03T14:43:10.244Z,14.80
2023-02-03T14:46:12.515Z,14.80
2023-02-03T14:49:18.203Z,14.70
2023-02-03T14:52:14.169Z,14.50
2023-02-03T14:55:03.796Z,14.30
2023-02-03T14:57:56.789Z,14.20
2023-02-03T15:00:31.979Z,14.00
2023-02-03T15:03:11.503Z,13.90
2023-02-03T15:05:48.152Z,13.70
2023-02-03T15:08:44.970Z,13.60
2023-02-03T15:11:44.364Z,13.40
2023-02-03T15:14:31.400Z,13.20
2023-02-03T15:16:59.656Z,13.10
2023-02-03T15:19:38.427Z,13.00
2023-02-03T15:22:30.504Z,12.80
2023-02-03T15:25:04.682Z,12.70
2023-02-03T15:27:32.788Z,12.60
2023-02-03T15:30:26.997Z,12.50
2023-02-03T15:33:13.276Z,12.40
2023-02-03T15:35:42.590Z,12.40
2023-02-03T15:38:20.881Z,12.30
2023-02-03T15:40:54.605Z,12.20
2023-02-03T15:43:45.485Z,12.20
2023-02-03T15:46:31.712Z,12.10
2023-02-03T15:49:25.694Z,12.10
2023-02-03T15:51:59.303Z,12.10
2023-02-03T15:54:46.112Z,12.00
2023-02-03T15:57:24.300Z,11.90
2023-02-03T16:00:00.040Z,11.90
2023-02-03T16:02:36.001Z,11.80
2023-02-03T16:05:39.888Z,11.80
2023-02-03T16:08:46.595Z,11.80
2023-02-03T16:11:32.907Z,11.70
2023-02-03T16:14:07.052Z,11.60
2023-02-03T16:17:03.826Z,11.60
2023-02-03T16:19:34.441Z,11.60
2023-02-03T16:22:01.503Z,11.50
2023-02-03T16:24:45.988Z,11.50
2023-02-03T16:27:33.927Z,11.50
2023-02-03T16:30:25.744Z,11.40
2023-02-03T16:33:38.029Z,11.40
2023-02-03T16:36:32.820Z,11.40
2023-02-03T16:39:29.356Z,11.30
2023-02-03T16:42:18.784Z,11.30
2023-02-03T16:45:04.575Z,11.30
2023-02-03T16:47:50.990Z,11.30
2023-02-03T16:50:40.095Z,11.30
2023-02-03T16:53:17.259Z,11.30
2023-02-03T16:55:44.599Z,11.30
2023-02-03T16:58:12.583Z,11.30
2023-02-03T17:00:42.463Z,11.20
2023-02-03T17:03:20.139Z,11.20
2023-02-03T17:05:48.009Z,11.20
2023-02-03T17:08:17.590Z,11.20
2023-02-03T17:10:46.225Z,11.20
2023-02-03T17:13:13.857Z,11.20
2023-02-03T17:15:47.553Z,11.20
2023-02-03T17:18:15.709Z,11.20
2023-02-03T17:20:44.318Z,11.20
2023-02-03T17:23:12.306Z,11.20
2023-02-03T17:25:40.190Z,11.10
2023-02-03T17:28:09.021Z,11.20
2023-02-03T17:30:36.672Z,11.10
2023-02-03T17:33:12.062Z,11.10
2023-02-03T17:35:44.576Z,11.10
2023-02-03T17:38:14.569Z,11.10
2023-02-03T17:54:35.341Z,11.20
2023-02-03T17:57:02.266Z,11.20
2023-02-03T17:59:29.347Z,11.20
2023-02-03T18:01:56.225Z,11.20
2023-02-03T18:04:23.234Z,11.30
2023-02-03T18:06:50.280Z,11.30
2023-02-03T18:09:17.492Z,11.30
2023-02-03T18:11:45.745Z,11.30
2023-02-03T18:14:14.310Z,11.30
2023-02-03T18:16:42.078Z,11.30
2023-02-03T18:19:14.365Z,11.30
2023-02-03T18:21:42.973Z,11.40
2023-02-03T18:24:13.012Z,11.30
2023-02-03T18:26:49.263Z,11.30
2023-02-03T18:29:18.660Z,11.30
2023-02-03T18:31:46.758Z,11.30
2023-02-03T18:34:16.265Z,11.30
2023-02-03T18:36:43.873Z,11.30
2023-02-03T18:39:12.653Z,11.30
2023-02-03T18:41:40.034Z,11.30
2023-02-03T18:44:07.129Z,11.30
2023-02-03T18:46:34.170Z,11.40
2023-02-03T18:49:01.302Z,11.30
2023-02-03T18:51:28.557Z,11.30
2023-02-03T18:53:59.966Z,11.30
2023-02-03T18:56:38.352Z,11.30
2023-02-03T18:59:08.702Z,11.40
2023-02-03T19:01:36.842Z,11.30
2023-02-03T19:04:04.287Z,11.30
2023-02-03T19:06:33.321Z,11.30
2023-02-03T19:09:01.336Z,11.40
2023-02-03T19:11:28.507Z,11.40
2023-02-03T19:13:55.455Z,11.40
2023-02-03T19:16:22.431Z,11.40
2023-02-03T19:18:49.450Z,11.40
2023-02-03T19:21:17.590Z,11.40
2023-02-03T19:23:44.727Z,11.40
2023-02-03T19:26:12.125Z,11.40
2023-02-03T19:28:40.489Z,11.40
2023-02-03T19:31:11.306Z,11.40
2023-02-03T19:33:38.698Z,11.40
2023-02-03T19:36:07.101Z,11.60
2023-02-03T19:38:34.647Z,11.30
2023-02-03T19:41:02.443Z,11.30
2023-02-03T19:43:31.374Z,11.30
2023-02-03T19:45:59.128Z,11.30
2023-02-03T19:48:26.134Z,11.30
2023-02-03T19:50:54.180Z,11.30
2023-02-03T19:53:21.624Z,11.30
2023-02-03T19:55:48.623Z,11.30
2023-02-03T19:58:16.356Z,11.30
2023-02-03T20:00:43.896Z,11.20
2023-02-03T20:03:11.006Z,11.20
2023-02-03T20:05:38.437Z,11.20
2023-02-03T20:08:06.199Z,11.20
2023-02-03T20:10:33.690Z,11.20
2023-02-03T20:13:00.950Z,11.30
2023-02-03T20:15:28.192Z,11.20
2023-02-03T20:17:55.849Z,11.20
2023-02-03T20:20:23.250Z,11.20
2023-02-03T20:22:50.227Z,11.20
2023-02-03T20:25:17.466Z,11.20
2023-02-03T20:27:45.432Z,11.20
2023-02-03T20:30:13.196Z,11.30
2023-02-03T20:32:40.346Z,11.10
2023-02-03T20:35:08.627Z,11.10
2023-02-03T20:37:36.324Z,11.10
2023-02-03T20:40:13.461Z,11.10
2023-02-03T20:42:40.993Z,11.10
2023-02-03T20:45:17.413Z,11.10
2023-02-03T20:47:44.703Z,11.10
2023-02-03T20:50:19.293Z,11.10
2023-02-03T20:52:50.611Z,11.10
2023-02-03T20:55:23.490Z,11.00
2023-02-03T20:57:51.488Z,10.90
2023-02-03T21:00:23.101Z,10.90
2023-02-03T21:03:11.021Z,10.90
2023-02-03T21:05:42.156Z,10.90
2023-02-03T21:08:20.171Z,10.80
2023-02-03T21:10:49.167Z,10.80
2023-02-03T21:13:26.871Z,10.80
2023-02-03T21:16:00.022Z,10.90
2023-02-03T21:18:48.666Z,10.70
2023-02-03T21:21:25.096Z,10.50
2023-02-03T21:23:53.825Z,10.70
2023-02-03T21:26:25.643Z,10.60
2023-02-03T21:28:58.737Z,10.60
2023-02-03T21:31:35.634Z,10.50
2023-02-03T21:34:16.820Z,10.40
2023-02-03T21:36:45.330Z,10.30
2023-02-03T21:39:27.932Z,10.20
2023-02-03T21:41:56.533Z,10.10
2023-02-03T21:44:44.495Z,10.00
2023-02-03T21:47:18.717Z,9.80
2023-02-03T21:49:45.808Z,9.70
2023-02-03T21:52:16.045Z,9.50
2023-02-03T21:54:44.530Z,9.40
2023-02-03T21:57:16.265Z,9.30
2023-02-03T21:59:47.173Z,9.30
2023-02-03T22:02:57.518Z,9.20
2023-02-03T22:05:24.780Z,9.10
2023-02-03T22:07:51.627Z,9.00
2023-02-03T22:10:18.643Z,8.90
2023-02-03T22:12:45.679Z,8.90
2023-02-03T22:15:12.670Z,8.80
2023-02-03T22:17:39.742Z,8.80
2023-02-03T22:20:31.682Z,8.80
2023-02-03T22:22:58.830Z,8.70
2023-02-03T22:25:25.902Z,8.70
2023-02-03T22:27:53.171Z,8.70
2023-02-03T22:30:20.554Z,8.70
2023-02-03T22:32:47.469Z,8.60
2023-02-03T22:35:14.524Z,8.60
2023-02-03T22:37:41.616Z,8.60
2023-02-03T22:40:10.105Z,8.60
2023-02-03T22:42:37.226Z,8.60
2023-02-03T22:45:05.160Z,8.60
2023-02-03T22:47:32.171Z,8.60
2023-02-03T22:49:59.356Z,8.50
2023-02-03T22:52:26.430Z,8.50
2023-02-03T22:54:53.512Z,8.50
2023-02-03T22:57:20.464Z,8.50
2023-02-03T22:59:47.473Z,8.50
2023-02-03T23:02:14.495Z,8.50
2023-02-03T23:04:41.536Z,8.50
2023-02-03T23:07:08.509Z,8.50
2023-02-03T23:09:35.620Z,8.50
2023-02-03T23:12:02.442Z,8.50
2023-02-03T23:14:29.452Z,8.50
2023-02-03T23:16:56.636Z,8.50
2023-02-03T23:19:24.872Z,8.50
2023-02-03T23:21:51.690Z,8.50
2023-02-03T23:24:18.825Z,8.50
2023-02-03T23:26:45.785Z,8.40
2023-02-03T23:29:12.885Z,8.40
2023-02-03T23:31:39.986Z,8.40
2023-02-03T23:34:25.782Z,8.40
2023-02-03T23:36:52.803Z,8.30
2023-02-03T23:39:19.972Z,8.30
2023-02-03T23:41:47.978Z,8.20
2023-02-03T23:44:15.050Z,8.30
2023-02-03T23:46:41.990Z,8.20
2023-02-03T23:49:08.837Z,8.20
2023-02-03T23:51:35.819Z,8.10
2023-02-03T23:54:02.700Z,8.10
2023-02-03T23:56:29.865Z,8.10
2023-02-03T23:58:56.852Z,8.10
